sensor_id;sensor_type;location;lat;lon;timestamp;temperature;humidity
7411;DHT22;3747;48.628;9.058;2023-03-14T00:01:21;8.10;99.90
7411;DHT22;3747;48.628;9.058;2023-03-14T00:03:50;8.10;99.90
7411;DHT22;3747;48.628;9.058;2023-03-14T00:06:18;8.10;99.90
7411;DHT22;3747;48.628;9.058;2023-03-14T00:08:45;8.10;99.90
7411;DHT22;3747;48.628;9.058;2023-03-14T00:11:14;8.10;99.90
7411;DHT22;3747;48.628;9.058;2023-03-14T00:13:42;8.00;99.90
7411;DHT22;3747;48.628;9.058;2023-03-14T00:16:10;8.00;99.90
7411;DHT22;3747;48.628;9.058;2023-03-14T00:18:38;8.00;99.90
7411;DHT22;3747;48.628;9.058;2023-03-14T00:21:09;8.00;99.90
7411;DHT22;3747;48.628;9.058;2023-03-14T00:23:37;8.00;99.90
7411;DHT22;3747;48.628;9.058;2023-03-14T00:26:05;8.00;99.90
7411;DHT22;3747;48.628;9.058;2023-03-14T00:28:32;8.00;99.90
7411;DHT22;3747;48.628;9.058;2023-03-14T00:31:02;8.00;99.90
7411;DHT22;3747;48.628;9.058;2023-03-14T00:33:29;8.10;99.90
7411;DHT22;3747;48.628;9.058;2023-03-14T00:35:56;8.10;99.90
7411;DHT22;3747;48.628;9.058;2023-03-14T00:38:25;8.10;99.90
7411;DHT22;3747;48.628;9.058;2023-03-14T00:40:52;8.10;99.90
7411;DHT22;3747;48.628;9.058;2023-03-14T00:43:20;8.10;99.90
7411;DHT22;3747;48.628;9.058;2023-03-14T00:45:48;8.10;99.90
7411;DHT22;3747;48.628;9.058;2023-03-14T00:48:14;8.10;99.90
7411;DHT22;3747;48.628;9.058;2023-03-14T00:50:41;8.10;99.90
7411;DHT22;3747;48.628;9.058;2023-03-14T00:53:08;8.20;99.90
7411;DHT22;3747;48.628;9.058;2023-03-14T00:55:38;8.20;99.90
7411;DHT22;3747;48.628;9.058;2023-03-14T00:58:05;8.20;99.90
7411;DHT22;3747;48.628;9.058;2023-03-14T01:00:32;8.20;99.90
7411;DHT22;3747;48.628;9.058;2023-03-14T01:02:59;8.20;99.90
7411;DHT22;3747;48.628;9.058;2023-03-14T01:05:26;8.20;99.90
7411;DHT22;3747;48.628;9.058;2023-03-14T01:07:53;8.20;99.90
7411;DHT22;3747;48.628;9.058;2023-03-14T01:10:19;8.10;99.90
7411;DHT22;3747;48.628;9.058;2023-03-14T01:12:48;8.20;99.90
7411;DHT22;3747;48.628;9.058;2023-03-14T01:15:15;8.20;99.90
7411;DHT22;3747;48.628;9.058;2023-03-14T01:17:41;8.20;99.90
7411;DHT22;3747;48.628;9.058;2023-03-14T01:20:10;8.20;99.90
7411;DHT22;3747;48.628;9.058;2023-03-14T01:22:39;8.20;99.90
7411;DHT22;3747;48.628;9.058;2023-03-14T01:25:07;8.20;99.90
7411;DHT22;3747;48.628;9.058;2023-03-14T01:27:34;8.20;99.90
7411;DHT22;3747;48.628;9.058;2023-03-14T01:30:03;8.10;99.90
7411;DHT22;3747;48.628;9.058;2023-03-14T01:32:30;8.10;99.90
7411;DHT22;3747;48.628;9.058;2023-03-14T01:34:57;8.10;99.90
7411;DHT22;3747;48.628;9.058;2023-03-14T01:37:24;8.10;99.90
7411;DHT22;3747;48.628;9.058;2023-03-14T01:39:50;8.10;99.90
7411;DHT22;3747;48.628;9.058;2023-03-14T01:42:17;8.10;99.90
7411;DHT22;3747;48.628;9.058;2023-03-14T01:44:49;8.10;99.90
7411;DHT22;3747;48.628;9.058;2023-03-14T01:47:18;8.00;99.90
7411;DHT22;3747;48.628;9.058;2023-03-14T01:49:45;8.00;99.90
7411;DHT22;3747;48.628;9.058;2023-03-14T01:52:15;8.00;99.90
7411;DHT22;3747;48.628;9.058;2023-03-14T01:54:44;8.00;99.90
7411;DHT22;3747;48.628;9.058;2023-03-14T01:57:17;7.90;99.90
7411;DHT22;3747;48.628;9.058;2023-03-14T01:59:47;7.90;99.90
7411;DHT22;3747;48.628;9.058;2023-03-14T02:02:18;7.90;99.90
7411;DHT22;3747;48.628;9.058;2023-03-14T02:04:45;7.90;99.90
7411;DHT22;3747;48.628;9.058;2023-03-14T02:07:14;7.90;99.90
7411;DHT22;3747;48.628;9.058;2023-03-14T02:09:42;7.90;99.90
7411;DHT22;3747;48.628;9.058;2023-03-14T02:12:10;7.90;99.90
7411;DHT22;3747;48.628;9.058;2023-03-14T02:14:38;7.90;99.90
7411;DHT22;3747;48.628;9.058;2023-03-14T02:17:06;7.90;99.90
7411;DHT22;3747;48.628;9.058;2023-03-14T02:19:57;7.90;99.90
7411;DHT22;3747;48.628;9.058;2023-03-14T02:22:25;7.90;99.90
7411;DHT22;3747;48.628;9.058;2023-03-14T02:24:58;7.80;99.90
7411;DHT22;3747;48.628;9.058;2023-03-14T02:27:28;7.80;99.90
7411;DHT22;3747;48.628;9.058;2023-03-14T02:29:57;7.80;99.90
7411;DHT22;3747;48.628;9.058;2023-03-14T02:32:26;7.80;99.90
7411;DHT22;3747;48.628;9.058;2023-03-14T02:34:56;7.80;99.90
7411;DHT22;3747;48.628;9.058;2023-03-14T02:37:25;7.80;99.90
7411;DHT22;3747;48.628;9.058;2023-03-14T02:39:53;7.80;99.90
7411;DHT22;3747;48.628;9.058;2023-03-14T02:42:20;7.80;99.90
7411;DHT22;3747;48.628;9.058;2023-03-14T02:44:51;7.80;99.90
7411;DHT22;3747;48.628;9.058;2023-03-14T02:47:21;7.80;99.90
7411;DHT22;3747;48.628;9.058;2023-03-14T02:49:49;7.70;99.90
7411;DHT22;3747;48.628;9.058;2023-03-14T02:52:16;7.70;99.90
7411;DHT22;3747;48.628;9.058;2023-03-14T02:54:43;7.70;99.90
7411;DHT22;3747;48.628;9.058;2023-03-14T02:57:10;7.70;99.90
7411;DHT22;3747;48.628;9.058;2023-03-14T02:59:36;7.60;99.90
7411;DHT22;3747;48.628;9.058;2023-03-14T03:02:04;7.60;99.90
7411;DHT22;3747;48.628;9.058;2023-03-14T03:04:31;7.50;99.90
7411;DHT22;3747;48.628;9.058;2023-03-14T03:06:58;7.50;99.90
7411;DHT22;3747;48.628;9.058;2023-03-14T03:09:24;7.50;99.90
7411;DHT22;3747;48.628;9.058;2023-03-14T03:11:51;7.50;99.90
7411;DHT22;3747;48.628;9.058;2023-03-14T03:14:17;7.40;99.90
7411;DHT22;3747;48.628;9.058;2023-03-14T03:16:44;7.40;99.90
7411;DHT22;3747;48.628;9.058;2023-03-14T03:19:12;7.40;99.90
7411;DHT22;3747;48.628;9.058;2023-03-14T03:21:41;7.40;99.90
7411;DHT22;3747;48.628;9.058;2023-03-14T03:24:08;7.30;99.90
7411;DHT22;3747;48.628;9.058;2023-03-14T03:26:34;7.30;99.90
7411;DHT22;3747;48.628;9.058;2023-03-14T03:29:01;7.30;99.90
7411;DHT22;3747;48.628;9.058;2023-03-14T03:31:28;7.30;99.90
7411;DHT22;3747;48.628;9.058;2023-03-14T03:33:55;7.30;99.90
7411;DHT22;3747;48.628;9.058;2023-03-14T03:36:25;7.20;99.90
7411;DHT22;3747;48.628;9.058;2023-03-14T03:38:51;7.10;99.90
7411;DHT22;3747;48.628;9.058;2023-03-14T03:41:18;7.10;99.90
7411;DHT22;3747;48.628;9.058;2023-03-14T03:43:45;7.10;99.90
7411;DHT22;3747;48.628;9.058;2023-03-14T03:46:11;7.10;99.90
7411;DHT22;3747;48.628;9.058;2023-03-14T03:48:38;7.10;99.90
7411;DHT22;3747;48.628;9.058;2023-03-14T03:51:06;7.10;99.90
7411;DHT22;3747;48.628;9.058;2023-03-14T03:53:34;7.20;99.90
7411;DHT22;3747;48.628;9.058;2023-03-14T03:56:00;7.10;99.90
7411;DHT22;3747;48.628;9.058;2023-03-14T03:58:27;7.10;99.90
7411;DHT22;3747;48.628;9.058;2023-03-14T04:00:54;7.10;99.90
7411;DHT22;3747;48.628;9.058;2023-03-14T04:03:20;7.00;99.90
7411;DHT22;3747;48.628;9.058;2023-03-14T04:05:57;7.00;99.90
7411;DHT22;3747;48.628;9.058;2023-03-14T04:08:24;7.00;99.90
7411;DHT22;3747;48.628;9.058;2023-03-14T04:10:55;7.00;99.90
7411;DHT22;3747;48.628;9.058;2023-03-14T04:13:22;7.00;99.90
7411;DHT22;3747;48.628;9.058;2023-03-14T04:15:49;7.00;99.90
7411;DHT22;3747;48.628;9.058;2023-03-14T04:18:16;7.00;99.90
7411;DHT22;3747;48.628;9.058;2023-03-14T04:20:43;7.00;99.90
7411;DHT22;3747;48.628;9.058;2023-03-14T04:23:10;7.10;99.90
7411;DHT22;3747;48.628;9.058;2023-03-14T04:25:36;7.00;99.90
7411;DHT22;3747;48.628;9.058;2023-03-14T04:28:05;7.00;99.90
7411;DHT22;3747;48.628;9.058;2023-03-14T04:30:31;7.00;99.90
7411;DHT22;3747;48.628;9.058;2023-03-14T04:32:58;6.90;99.90
7411;DHT22;3747;48.628;9.058;2023-03-14T04:35:25;6.90;99.90
7411;DHT22;3747;48.628;9.058;2023-03-14T04:37:51;6.90;99.90
7411;DHT22;3747;48.628;9.058;2023-03-14T04:40:18;6.90;99.90
7411;DHT22;3747;48.628;9.058;2023-03-14T04:42:45;6.90;99.90
7411;DHT22;3747;48.628;9.058;2023-03-14T04:45:13;6.80;99.90
7411;DHT22;3747;48.628;9.058;2023-03-14T04:47:39;6.70;99.90
7411;DHT22;3747;48.628;9.058;2023-03-14T04:50:07;6.70;99.90
7411;DHT22;3747;48.628;9.058;2023-03-14T04:52:34;6.80;99.90
7411;DHT22;3747;48.628;9.058;2023-03-14T04:55:00;6.80;99.90
7411;DHT22;3747;48.628;9.058;2023-03-14T04:57:27;6.70;99.90
7411;DHT22;3747;48.628;9.058;2023-03-14T04:59:54;6.70;99.90
7411;DHT22;3747;48.628;9.058;2023-03-14T05:02:21;6.70;99.90
7411;DHT22;3747;48.628;9.058;2023-03-14T05:04:48;6.70;99.90
7411;DHT22;3747;48.628;9.058;2023-03-14T05:07:15;6.80;99.90
7411;DHT22;3747;48.628;9.058;2023-03-14T05:09:42;6.80;99.90
7411;DHT22;3747;48.628;9.058;2023-03-14T05:12:08;6.90;99.90
7411;DHT22;3747;48.628;9.058;2023-03-14T05:14:35;6.90;99.90
7411;DHT22;3747;48.628;9.058;2023-03-14T05:17:02;6.90;99.90
7411;DHT22;3747;48.628;9.058;2023-03-14T05:19:30;6.90;99.90
7411;DHT22;3747;48.628;9.058;2023-03-14T05:21:57;6.80;99.90
7411;DHT22;3747;48.628;9.058;2023-03-14T05:24:23;6.90;99.90
7411;DHT22;3747;48.628;9.058;2023-03-14T05:26:50;6.80;99.90
7411;DHT22;3747;48.628;9.058;2023-03-14T05:29:17;6.80;99.90
7411;DHT22;3747;48.628;9.058;2023-03-14T05:31:43;6.80;99.90
7411;DHT22;3747;48.628;9.058;2023-03-14T05:34:10;6.80;99.90
7411;DHT22;3747;48.628;9.058;2023-03-14T05:36:38;6.90;99.90
7411;DHT22;3747;48.628;9.058;2023-03-14T05:39:05;6.90;99.90
7411;DHT22;3747;48.628;9.058;2023-03-14T05:41:31;6.90;99.90
7411;DHT22;3747;48.628;9.058;2023-03-14T05:43:58;6.80;99.90
7411;DHT22;3747;48.628;9.058;2023-03-14T05:46:25;6.80;99.90
7411;DHT22;3747;48.628;9.058;2023-03-14T05:48:52;6.70;99.90
7411;DHT22;3747;48.628;9.058;2023-03-14T05:51:18;6.70;99.90
7411;DHT22;3747;48.628;9.058;2023-03-14T05:53:46;6.70;99.90
7411;DHT22;3747;48.628;9.058;2023-03-14T05:56:13;6.70;99.90
7411;DHT22;3747;48.628;9.058;2023-03-14T05:58:40;6.70;99.90
7411;DHT22;3747;48.628;9.058;2023-03-14T06:01:07;6.80;99.90
7411;DHT22;3747;48.628;9.058;2023-03-14T06:03:34;6.80;99.90
7411;DHT22;3747;48.628;9.058;2023-03-14T06:06:01;6.80;99.90
7411;DHT22;3747;48.628;9.058;2023-03-14T06:08:28;6.80;99.90
7411;DHT22;3747;48.628;9.058;2023-03-14T06:10:56;6.90;99.90
7411;DHT22;3747;48.628;9.058;2023-03-14T06:13:23;6.90;99.90
7411;DHT22;3747;48.628;9.058;2023-03-14T06:15:50;7.00;99.90
7411;DHT22;3747;48.628;9.058;2023-03-14T06:18:16;7.10;99.90
7411;DHT22;3747;48.628;9.058;2023-03-14T06:20:43;7.10;99.90
7411;DHT22;3747;48.628;9.058;2023-03-14T06:23:10;7.10;99.90
7411;DHT22;3747;48.628;9.058;2023-03-14T06:25:37;7.20;99.90
7411;DHT22;3747;48.628;9.058;2023-03-14T06:28:05;7.20;99.90
7411;DHT22;3747;48.628;9.058;2023-03-14T06:30:32;7.30;99.90
7411;DHT22;3747;48.628;9.058;2023-03-14T06:32:58;7.30;99.90
7411;DHT22;3747;48.628;9.058;2023-03-14T06:35:25;7.30;99.90
7411;DHT22;3747;48.628;9.058;2023-03-14T06:37:53;7.30;99.90
7411;DHT22;3747;48.628;9.058;2023-03-14T06:40:19;7.30;99.90
7411;DHT22;3747;48.628;9.058;2023-03-14T06:42:46;7.20;99.90
7411;DHT22;3747;48.628;9.058;2023-03-14T06:45:14;7.30;99.90
7411;DHT22;3747;48.628;9.058;2023-03-14T06:47:41;7.30;99.90
7411;DHT22;3747;48.628;9.058;2023-03-14T06:50:09;7.40;99.90
7411;DHT22;3747;48.628;9.058;2023-03-14T06:52:36;7.40;99.90
7411;DHT22;3747;48.628;9.058;2023-03-14T06:55:07;7.50;99.90
7411;DHT22;3747;48.628;9.058;2023-03-14T06:57:34;7.60;99.90
7411;DHT22;3747;48.628;9.058;2023-03-14T07:00:00;7.70;99.90
7411;DHT22;3747;48.628;9.058;2023-03-14T07:02:28;7.80;99.90
7411;DHT22;3747;48.628;9.058;2023-03-14T07:04:55;7.90;99.90
7411;DHT22;3747;48.628;9.058;2023-03-14T07:07:21;8.00;99.90
7411;DHT22;3747;48.628;9.058;2023-03-14T07:09:48;8.00;99.90
7411;DHT22;3747;48.628;9.058;2023-03-14T07:12:15;8.20;99.90
7411;DHT22;3747;48.628;9.058;2023-03-14T07:14:41;8.20;99.90
7411;DHT22;3747;48.628;9.058;2023-03-14T07:17:08;8.10;99.90
7411;DHT22;3747;48.628;9.058;2023-03-14T07:19:36;8.10;99.90
7411;DHT22;3747;48.628;9.058;2023-03-14T07:22:04;8.10;99.90
7411;DHT22;3747;48.628;9.058;2023-03-14T07:24:30;8.10;99.90
7411;DHT22;3747;48.628;9.058;2023-03-14T07:26:57;8.50;99.90
7411;DHT22;3747;48.628;9.058;2023-03-14T07:29:24;9.30;99.90
7411;DHT22;3747;48.628;9.058;2023-03-14T07:31:50;9.90;99.90
7411;DHT22;3747;48.628;9.058;2023-03-14T07:34:17;10.00;99.90
7411;DHT22;3747;48.628;9.058;2023-03-14T07:36:46;9.80;99.90
7411;DHT22;3747;48.628;9.058;2023-03-14T07:39:12;9.50;99.90
7411;DHT22;3747;48.628;9.058;2023-03-14T07:41:39;9.30;99.90
7411;DHT22;3747;48.628;9.058;2023-03-14T07:44:06;9.10;99.90
7411;DHT22;3747;48.628;9.058;2023-03-14T07:46:32;9.10;99.90
7411;DHT22;3747;48.628;9.058;2023-03-14T07:48:59;9.10;99.90
7411;DHT22;3747;48.628;9.058;2023-03-14T07:51:26;9.20;99.90
7411;DHT22;3747;48.628;9.058;2023-03-14T07:53:54;9.30;99.90
7411;DHT22;3747;48.628;9.058;2023-03-14T07:56:20;9.40;99.90
7411;DHT22;3747;48.628;9.058;2023-03-14T07:58:47;9.60;99.90
7411;DHT22;3747;48.628;9.058;2023-03-14T08:01:14;9.70;99.90
7411;DHT22;3747;48.628;9.058;2023-03-14T08:03:40;9.80;99.90
7411;DHT22;3747;48.628;9.058;2023-03-14T08:06:07;10.00;99.90
7411;DHT22;3747;48.628;9.058;2023-03-14T08:08:34;10.00;99.90
7411;DHT22;3747;48.628;9.058;2023-03-14T08:11:06;10.00;99.90
7411;DHT22;3747;48.628;9.058;2023-03-14T08:13:34;10.00;99.90
7411;DHT22;3747;48.628;9.058;2023-03-14T08:16:01;10.10;99.90
7411;DHT22;3747;48.628;9.058;2023-03-14T08:18:28;10.10;99.90
7411;DHT22;3747;48.628;9.058;2023-03-14T08:20:55;10.10;99.90
7411;DHT22;3747;48.628;9.058;2023-03-14T08:23:21;10.20;99.90
7411;DHT22;3747;48.628;9.058;2023-03-14T08:25:49;10.30;99.90
7411;DHT22;3747;48.628;9.058;2023-03-14T08:28:18;10.90;99.90
7411;DHT22;3747;48.628;9.058;2023-03-14T08:30:45;11.50;99.90
7411;DHT22;3747;48.628;9.058;2023-03-14T08:33:11;11.40;99.90
7411;DHT22;3747;48.628;9.058;2023-03-14T08:35:38;11.30;99.90
7411;DHT22;3747;48.628;9.058;2023-03-14T08:38:05;11.10;99.90
7411;DHT22;3747;48.628;9.058;2023-03-14T08:40:37;11.10;99.90
7411;DHT22;3747;48.628;9.058;2023-03-14T08:43:04;10.90;99.90
7411;DHT22;3747;48.628;9.058;2023-03-14T08:45:32;10.80;99.90
7411;DHT22;3747;48.628;9.058;2023-03-14T08:47:59;10.60;99.90
7411;DHT22;3747;48.628;9.058;2023-03-14T08:50:25;10.50;99.90
7411;DHT22;3747;48.628;9.058;2023-03-14T08:52:52;10.20;99.90
7411;DHT22;3747;48.628;9.058;2023-03-14T08:55:19;10.00;99.90
7411;DHT22;3747;48.628;9.058;2023-03-14T08:57:45;9.80;99.90
7411;DHT22;3747;48.628;9.058;2023-03-14T09:00:14;9.50;99.90
7411;DHT22;3747;48.628;9.058;2023-03-14T09:02:43;9.30;99.90
7411;DHT22;3747;48.628;9.058;2023-03-14T09:05:11;9.20;99.90
7411;DHT22;3747;48.628;9.058;2023-03-14T09:07:38;9.20;99.90
7411;DHT22;3747;48.628;9.058;2023-03-14T09:10:06;9.30;99.90
7411;DHT22;3747;48.628;9.058;2023-03-14T09:12:32;9.40;99.90
7411;DHT22;3747;48.628;9.058;2023-03-14T09:14:59;9.40;99.90
7411;DHT22;3747;48.628;9.058;2023-03-14T09:17:26;9.30;99.90
7411;DHT22;3747;48.628;9.058;2023-03-14T09:19:54;9.30;99.90
7411;DHT22;3747;48.628;9.058;2023-03-14T09:22:21;9.50;99.90
7411;DHT22;3747;48.628;9.058;2023-03-14T09:24:48;9.60;99.90
7411;DHT22;3747;48.628;9.058;2023-03-14T09:27:15;9.60;99.90
7411;DHT22;3747;48.628;9.058;2023-03-14T09:29:41;9.60;99.90
7411;DHT22;3747;48.628;9.058;2023-03-14T09:32:08;9.60;99.90
7411;DHT22;3747;48.628;9.058;2023-03-14T09:34:35;9.70;99.90
7411;DHT22;3747;48.628;9.058;2023-03-14T09:37:05;10.00;99.90
7411;DHT22;3747;48.628;9.058;2023-03-14T09:39:32;10.10;99.90
7411;DHT22;3747;48.628;9.058;2023-03-14T09:42:02;10.10;99.90
7411;DHT22;3747;48.628;9.058;2023-03-14T09:44:31;10.30;99.90
7411;DHT22;3747;48.628;9.058;2023-03-14T09:47:02;10.40;99.90
7411;DHT22;3747;48.628;9.058;2023-03-14T09:49:30;10.40;99.90
7411;DHT22;3747;48.628;9.058;2023-03-14T09:51:59;10.40;99.90
7411;DHT22;3747;48.628;9.058;2023-03-14T09:54:36;10.30;99.90
7411;DHT22;3747;48.628;9.058;2023-03-14T09:57:06;10.40;99.90
7411;DHT22;3747;48.628;9.058;2023-03-14T09:59:33;10.60;99.90
7411;DHT22;3747;48.628;9.058;2023-03-14T10:02:02;10.50;99.90
7411;DHT22;3747;48.628;9.058;2023-03-14T10:04:38;10.50;99.90
7411;DHT22;3747;48.628;9.058;2023-03-14T10:07:13;10.50;99.90
7411;DHT22;3747;48.628;9.058;2023-03-14T10:09:44;10.60;99.90
7411;DHT22;3747;48.628;9.058;2023-03-14T10:12:11;10.70;99.90
7411;DHT22;3747;48.628;9.058;2023-03-14T10:14:45;10.80;99.90
7411;DHT22;3747;48.628;9.058;2023-03-14T10:17:14;11.00;99.90
7411;DHT22;3747;48.628;9.058;2023-03-14T10:19:52;11.30;99.90
7411;DHT22;3747;48.628;9.058;2023-03-14T10:22:19;11.50;99.90
7411;DHT22;3747;48.628;9.058;2023-03-14T10:24:51;11.60;99.90
7411;DHT22;3747;48.628;9.058;2023-03-14T10:27:20;11.60;99.90
7411;DHT22;3747;48.628;9.058;2023-03-14T10:29:53;11.50;99.90
7411;DHT22;3747;48.628;9.058;2023-03-14T10:32:21;11.50;99.90
7411;DHT22;3747;48.628;9.058;2023-03-14T10:35:07;11.50;99.90
7411;DHT22;3747;48.628;9.058;2023-03-14T10:37:35;11.60;99.90
7411;DHT22;3747;48.628;9.058;2023-03-14T10:40:05;11.70;99.90
7411;DHT22;3747;48.628;9.058;2023-03-14T10:42:33;11.60;99.90
7411;DHT22;3747;48.628;9.058;2023-03-14T10:45:03;11.60;99.90
7411;DHT22;3747;48.628;9.058;2023-03-14T10:47:33;11.50;99.90
7411;DHT22;3747;48.628;9.058;2023-03-14T10:50:23;11.50;99.90
7411;DHT22;3747;48.628;9.058;2023-03-14T10:52:52;11.40;99.90
7411;DHT22;3747;48.628;9.058;2023-03-14T10:55:23;11.10;99.90
7411;DHT22;3747;48.628;9.058;2023-03-14T10:57:50;10.80;99.90
7411;DHT22;3747;48.628;9.058;2023-03-14T11:00:19;10.70;99.90
7411;DHT22;3747;48.628;9.058;2023-03-14T11:02:58;10.70;99.90
7411;DHT22;3747;48.628;9.058;2023-03-14T11:05:31;10.80;99.90
7411;DHT22;3747;48.628;9.058;2023-03-14T11:08:04;10.80;99.90
7411;DHT22;3747;48.628;9.058;2023-03-14T11:10:36;10.60;99.90
7411;DHT22;3747;48.628;9.058;2023-03-14T11:13:15;10.30;99.90
7411;DHT22;3747;48.628;9.058;2023-03-14T11:15:50;10.00;99.90
7411;DHT22;3747;48.628;9.058;2023-03-14T11:18:33;9.90;99.90
7411;DHT22;3747;48.628;9.058;2023-03-14T11:21:07;9.90;99.90
7411;DHT22;3747;48.628;9.058;2023-03-14T11:23:42;10.10;99.90
7411;DHT22;3747;48.628;9.058;2023-03-14T11:26:25;10.20;99.90
7411;DHT22;3747;48.628;9.058;2023-03-14T11:28:57;10.30;99.90
7411;DHT22;3747;48.628;9.058;2023-03-14T11:31:27;10.00;99.90
7411;DHT22;3747;48.628;9.058;2023-03-14T11:33:58;9.60;99.90
7411;DHT22;3747;48.628;9.058;2023-03-14T11:36:30;9.30;99.90
7411;DHT22;3747;48.628;9.058;2023-03-14T11:38:58;9.20;99.90
7411;DHT22;3747;48.628;9.058;2023-03-14T11:41:30;9.10;99.90
7411;DHT22;3747;48.628;9.058;2023-03-14T11:44:00;9.20;99.90
7411;DHT22;3747;48.628;9.058;2023-03-14T11:46:30;9.30;99.90
7411;DHT22;3747;48.628;9.058;2023-03-14T11:49:01;9.30;99.90
7411;DHT22;3747;48.628;9.058;2023-03-14T11:51:33;9.50;99.90
7411;DHT22;3747;48.628;9.058;2023-03-14T11:54:07;9.50;99.90
7411;DHT22;3747;48.628;9.058;2023-03-14T11:56:45;9.60;99.90
7411;DHT22;3747;48.628;9.058;2023-03-14T11:59:16;9.50;99.90
7411;DHT22;3747;48.628;9.058;2023-03-14T12:01:52;9.30;99.90
7411;DHT22;3747;48.628;9.058;2023-03-14T12:04:30;9.10;99.90
7411;DHT22;3747;48.628;9.058;2023-03-14T12:07:03;9.00;99.90
7411;DHT22;3747;48.628;9.058;2023-03-14T12:09:34;8.90;99.90
7411;DHT22;3747;48.628;9.058;2023-03-14T12:12:04;8.80;99.90
7411;DHT22;3747;48.628;9.058;2023-03-14T12:14:33;8.80;99.90
7411;DHT22;3747;48.628;9.058;2023-03-14T12:17:05;8.70;99.90
7411;DHT22;3747;48.628;9.058;2023-03-14T12:19:38;8.80;99.90
7411;DHT22;3747;48.628;9.058;2023-03-14T12:22:18;8.90;99.90
7411;DHT22;3747;48.628;9.058;2023-03-14T12:24:49;9.00;99.90
7411;DHT22;3747;48.628;9.058;2023-03-14T12:30:27;8.60;99.90
7411;DHT22;3747;48.628;9.058;2023-03-14T12:39:13;8.90;99.90
7411;DHT22;3747;48.628;9.058;2023-03-14T12:41:44;9.70;99.90
7411;DHT22;3747;48.628;9.058;2023-03-14T12:44:41;10.30;99.90
7411;DHT22;3747;48.628;9.058;2023-03-14T12:47:49;10.50;99.90
7411;DHT22;3747;48.628;9.058;2023-03-14T12:50:24;10.30;99.90
7411;DHT22;3747;48.628;9.058;2023-03-14T12:56:02;10.40;99.90
7411;DHT22;3747;48.628;9.058;2023-03-14T12:58:34;9.70;99.90
7411;DHT22;3747;48.628;9.058;2023-03-14T13:01:03;9.60;99.90
7411;DHT22;3747;48.628;9.058;2023-03-14T13:03:39;9.50;99.90
7411;DHT22;3747;48.628;9.058;2023-03-14T13:06:10;9.70;99.90
7411;DHT22;3747;48.628;9.058;2023-03-14T13:08:40;9.80;99.90
7411;DHT22;3747;48.628;9.058;2023-03-14T13:11:10;10.30;99.90
7411;DHT22;3747;48.628;9.058;2023-03-14T13:13:41;10.30;99.90
7411;DHT22;3747;48.628;9.058;2023-03-14T13:16:15;10.40;99.90
7411;DHT22;3747;48.628;9.058;2023-03-14T13:18:44;10.20;99.90
7411;DHT22;3747;48.628;9.058;2023-03-14T13:21:14;9.90;99.90
7411;DHT22;3747;48.628;9.058;2023-03-14T13:23:54;9.80;99.90
7411;DHT22;3747;48.628;9.058;2023-03-14T13:26:21;8.90;99.90
7411;DHT22;3747;48.628;9.058;2023-03-14T13:28:48;8.60;99.90
7411;DHT22;3747;48.628;9.058;2023-03-14T13:31:21;8.40;99.90
7411;DHT22;3747;48.628;9.058;2023-03-14T13:33:58;8.20;99.90
7411;DHT22;3747;48.628;9.058;2023-03-14T13:36:27;8.00;99.90
7411;DHT22;3747;48.628;9.058;2023-03-14T13:38:58;7.90;99.90
7411;DHT22;3747;48.628;9.058;2023-03-14T13:41:27;7.70;99.90
7411;DHT22;3747;48.628;9.058;2023-03-14T13:44:01;7.70;99.90
7411;DHT22;3747;48.628;9.058;2023-03-14T13:46:28;7.50;99.90
7411;DHT22;3747;48.628;9.058;2023-03-14T13:48:58;7.40;99.90
7411;DHT22;3747;48.628;9.058;2023-03-14T13:51:26;7.30;99.90
7411;DHT22;3747;48.628;9.058;2023-03-14T13:53:57;7.40;99.90
7411;DHT22;3747;48.628;9.058;2023-03-14T13:56:25;7.40;99.90
7411;DHT22;3747;48.628;9.058;2023-03-14T13:58:53;7.40;99.90
7411;DHT22;3747;48.628;9.058;2023-03-14T14:01:22;7.40;99.90
7411;DHT22;3747;48.628;9.058;2023-03-14T14:03:50;7.30;99.90
7411;DHT22;3747;48.628;9.058;2023-03-14T14:06:32;7.40;99.90
7411;DHT22;3747;48.628;9.058;2023-03-14T14:09:01;7.30;99.90
7411;DHT22;3747;48.628;9.058;2023-03-14T14:11:36;7.30;99.90
7411;DHT22;3747;48.628;9.058;2023-03-14T14:14:07;7.30;99.90
7411;DHT22;3747;48.628;9.058;2023-03-14T14:16:36;7.30;99.90
7411;DHT22;3747;48.628;9.058;2023-03-14T14:19:03;7.30;99.90
7411;DHT22;3747;48.628;9.058;2023-03-14T14:21:32;7.30;99.90
7411;DHT22;3747;48.628;9.058;2023-03-14T14:23:59;7.20;99.90
7411;DHT22;3747;48.628;9.058;2023-03-14T14:26:27;7.20;99.90
7411;DHT22;3747;48.628;9.058;2023-03-14T14:29:02;7.20;99.90
7411;DHT22;3747;48.628;9.058;2023-03-14T14:31:29;7.30;99.90
7411;DHT22;3747;48.628;9.058;2023-03-14T14:33:57;7.20;99.90
7411;DHT22;3747;48.628;9.058;2023-03-14T14:36:27;7.20;99.90
7411;DHT22;3747;48.628;9.058;2023-03-14T14:39:00;7.20;99.90
7411;DHT22;3747;48.628;9.058;2023-03-14T14:41:31;7.20;99.90
7411;DHT22;3747;48.628;9.058;2023-03-14T14:43:59;7.20;99.90
7411;DHT22;3747;48.628;9.058;2023-03-14T14:46:28;7.30;99.90
7411;DHT22;3747;48.628;9.058;2023-03-14T14:48:56;7.20;99.90
7411;DHT22;3747;48.628;9.058;2023-03-14T14:51:26;7.20;99.90
7411;DHT22;3747;48.628;9.058;2023-03-14T14:54:09;7.10;99.90
7411;DHT22;3747;48.628;9.058;2023-03-14T14:56:37;7.20;99.90
7411;DHT22;3747;48.628;9.058;2023-03-14T14:59:05;7.60;99.90
7411;DHT22;3747;48.628;9.058;2023-03-14T15:01:34;7.90;99.90
7411;DHT22;3747;48.628;9.058;2023-03-14T15:04:01;7.90;99.90
7411;DHT22;3747;48.628;9.058;2023-03-14T15:06:30;8.50;99.90
7411;DHT22;3747;48.628;9.058;2023-03-14T15:08:57;8.30;99.90
7411;DHT22;3747;48.628;9.058;2023-03-14T15:11:26;7.90;99.90
7411;DHT22;3747;48.628;9.058;2023-03-14T15:13:53;8.00;99.90
7411;DHT22;3747;48.628;9.058;2023-03-14T15:16:22;8.00;99.90
7411;DHT22;3747;48.628;9.058;2023-03-14T15:18:52;8.80;99.90
7411;DHT22;3747;48.628;9.058;2023-03-14T15:21:20;9.50;99.90
7411;DHT22;3747;48.628;9.058;2023-03-14T15:23:46;9.40;99.90
7411;DHT22;3747;48.628;9.058;2023-03-14T15:26:15;8.80;99.90
7411;DHT22;3747;48.628;9.058;2023-03-14T15:28:44;8.10;99.90
7411;DHT22;3747;48.628;9.058;2023-03-14T15:31:12;7.80;99.90
7411;DHT22;3747;48.628;9.058;2023-03-14T15:33:40;7.50;99.90
7411;DHT22;3747;48.628;9.058;2023-03-14T15:36:19;7.50;99.90
7411;DHT22;3747;48.628;9.058;2023-03-14T15:38:46;7.50;99.90
7411;DHT22;3747;48.628;9.058;2023-03-14T15:41:12;7.50;99.90
7411;DHT22;3747;48.628;9.058;2023-03-14T15:43:40;7.30;99.90
7411;DHT22;3747;48.628;9.058;2023-03-14T15:46:10;7.20;99.90
7411;DHT22;3747;48.628;9.058;2023-03-14T15:48:37;7.40;99.90
7411;DHT22;3747;48.628;9.058;2023-03-14T15:51:04;7.40;99.90
7411;DHT22;3747;48.628;9.058;2023-03-14T15:53:31;7.30;99.90
7411;DHT22;3747;48.628;9.058;2023-03-14T15:55:57;7.30;99.90
7411;DHT22;3747;48.628;9.058;2023-03-14T15:58:24;7.30;99.90
7411;DHT22;3747;48.628;9.058;2023-03-14T16:00:51;7.20;99.90
7411;DHT22;3747;48.628;9.058;2023-03-14T16:03:19;7.30;99.90
7411;DHT22;3747;48.628;9.058;2023-03-14T16:05:46;7.30;99.90
7411;DHT22;3747;48.628;9.058;2023-03-14T16:08:13;7.30;99.90
7411;DHT22;3747;48.628;9.058;2023-03-14T16:10:40;7.00;99.90
7411;DHT22;3747;48.628;9.058;2023-03-14T16:13:07;6.80;99.90
7411;DHT22;3747;48.628;9.058;2023-03-14T16:15:33;6.70;99.90
7411;DHT22;3747;48.628;9.058;2023-03-14T16:18:00;6.90;99.90
7411;DHT22;3747;48.628;9.058;2023-03-14T16:20:28;7.20;99.90
7411;DHT22;3747;48.628;9.058;2023-03-14T16:22:55;7.20;99.90
7411;DHT22;3747;48.628;9.058;2023-03-14T16:25:22;7.10;99.90
7411;DHT22;3747;48.628;9.058;2023-03-14T16:27:49;6.90;99.90
7411;DHT22;3747;48.628;9.058;2023-03-14T16:30:15;6.80;99.90
7411;DHT22;3747;48.628;9.058;2023-03-14T16:32:45;6.60;99.90
7411;DHT22;3747;48.628;9.058;2023-03-14T16:35:11;6.50;99.90
7411;DHT22;3747;48.628;9.058;2023-03-14T16:37:39;6.50;99.90